createdAt,value
2018-09-25T00:01:06.838Z,15.27
2018-09-25T00:03:42.405Z,15.18
2018-09-25T00:06:18.093Z,15.08
2018-09-25T00:08:53.541Z,15.02
2018-09-25T00:11:29.614Z,14.94
2018-09-25T00:14:05.432Z,14.92
2018-09-25T00:16:40.914Z,14.84
2018-09-25T00:19:16.461Z,14.78
2018-09-25T00:21:51.949Z,14.84
2018-09-25T00:24:27.465Z,14.82
2018-09-25T00:27:02.966Z,14.67
2018-09-25T00:29:38.492Z,14.58
2018-09-25T00:32:14.083Z,14.49
2018-09-25T00:34:49.381Z,14.39
2018-09-25T00:37:25.081Z,14.46
2018-09-25T00:40:00.484Z,14.47
2018-09-25T00:42:35.970Z,14.40
2018-09-25T00:45:11.688Z,14.28
2018-09-25T00:47:47.139Z,14.22
2018-09-25T00:50:22.825Z,14.17
2018-09-25T00:52:58.336Z,14.18
2018-09-25T00:55:33.913Z,14.13
2018-09-25T00:58:09.610Z,14.15
2018-09-25T01:00:45.015Z,14.17
2018-09-25T01:03:20.654Z,14.20
2018-09-25T01:05:56.053Z,14.22
2018-09-25T01:08:31.428Z,14.20
2018-09-25T01:11:06.950Z,14.29
2018-09-25T01:13:42.451Z,14.24
2018-09-25T01:16:17.763Z,14.22
2018-09-25T01:18:53.430Z,14.23
2018-09-25T01:21:29.306Z,14.27
2018-09-25T01:24:04.834Z,14.31
2018-09-25T01:26:40.420Z,14.28
2018-09-25T01:29:15.927Z,14.31
2018-09-25T01:31:51.502Z,14.34
2018-09-25T01:34:26.886Z,14.32
2018-09-25T01:37:02.301Z,14.28
2018-09-25T01:39:38.077Z,14.42
2018-09-25T01:42:13.512Z,14.50
2018-09-25T01:44:49.112Z,14.38
2018-09-25T01:47:24.623Z,14.31
2018-09-25T01:50:00.090Z,14.34
2018-09-25T01:52:35.679Z,14.36
2018-09-25T01:55:11.184Z,14.37
2018-09-25T01:57:46.607Z,14.51
2018-09-25T02:00:22.719Z,14.55
2018-09-25T02:02:58.544Z,14.53
2018-09-25T02:05:34.142Z,14.67
2018-09-25T02:08:09.703Z,14.73
2018-09-25T02:10:45.237Z,14.65
2018-09-25T02:13:20.636Z,14.60
2018-09-25T02:15:56.106Z,14.56
2018-09-25T02:18:31.720Z,14.54
2018-09-25T02:21:07.792Z,14.44
2018-09-25T02:23:43.420Z,14.38
2018-09-25T02:26:19.296Z,14.45
2018-09-25T02:28:56.448Z,14.43
2018-09-25T02:31:33.321Z,14.58
2018-09-25T02:34:09.032Z,14.48
2018-09-25T02:36:44.501Z,14.40
2018-09-25T02:39:19.912Z,14.52
2018-09-25T02:41:55.561Z,14.48
2018-09-25T02:44:30.996Z,14.48
2018-09-25T02:47:06.533Z,14.41
2018-09-25T02:49:41.822Z,14.44
2018-09-25T02:52:18.167Z,14.31
2018-09-25T02:54:53.657Z,14.25
2018-09-25T02:57:29.104Z,14.21
2018-09-25T03:00:04.262Z,14.18
2018-09-25T03:02:39.635Z,14.25
2018-09-25T03:05:15.308Z,14.29
2018-09-25T03:07:51.822Z,14.31
2018-09-25T03:10:27.196Z,14.12
2018-09-25T03:13:02.811Z,14.10
2018-09-25T03:15:38.357Z,14.25
2018-09-25T03:18:13.967Z,14.21
2018-09-25T03:20:49.457Z,14.23
2018-09-25T03:23:24.990Z,14.28
2018-09-25T03:26:01.068Z,14.11
2018-09-25T03:28:36.436Z,14.11
2018-09-25T03:31:12.215Z,14.03
2018-09-25T03:33:47.762Z,13.99
2018-09-25T03:36:23.170Z,13.95
2018-09-25T03:38:58.778Z,13.80
2018-09-25T03:41:35.285Z,13.99
2018-09-25T03:44:10.945Z,14.00
2018-09-25T03:46:46.504Z,13.95
2018-09-25T03:49:22.058Z,13.98
2018-09-25T03:51:57.673Z,13.89
2018-09-25T03:54:33.297Z,13.95
2018-09-25T03:57:08.846Z,13.87
2018-09-25T03:59:44.690Z,13.86
2018-09-25T04:02:20.148Z,13.83
2018-09-25T04:04:55.773Z,13.96
2018-09-25T04:07:31.213Z,13.94
2018-09-25T04:10:06.844Z,13.87
2018-09-25T04:12:42.287Z,13.79
2018-09-25T04:15:17.642Z,13.84
2018-09-25T04:17:53.377Z,13.72
2018-09-25T04:20:28.738Z,13.79
2018-09-25T04:23:04.235Z,13.80
2018-09-25T04:25:39.733Z,13.75
2018-09-25T04:28:15.223Z,13.63
2018-09-25T04:30:50.665Z,13.63
2018-09-25T04:33:26.232Z,13.69
2018-09-25T04:36:01.739Z,13.66
2018-09-25T04:38:37.073Z,13.83
2018-09-25T04:41:12.801Z,13.75
2018-09-25T04:43:48.206Z,13.88
2018-09-25T04:46:23.578Z,13.82
2018-09-25T04:48:59.224Z,13.66
2018-09-25T04:51:34.741Z,13.54
2018-09-25T04:54:11.094Z,13.40
2018-09-25T04:56:46.463Z,13.41
2018-09-25T04:59:22.130Z,13.40
2018-09-25T05:01:57.919Z,13.39
2018-09-25T05:04:33.449Z,13.40
2018-09-25T05:07:09.450Z,13.55
2018-09-25T05:09:45.126Z,13.50
2018-09-25T05:12:20.692Z,13.47
2018-09-25T05:14:56.638Z,13.45
2018-09-25T05:17:32.173Z,13.46
2018-09-25T05:20:07.952Z,13.49
2018-09-25T05:22:44.757Z,13.43
2018-09-25T05:25:21.112Z,13.51
2018-09-25T05:27:56.747Z,13.67
2018-09-25T05:30:32.552Z,13.66
2018-09-25T05:33:08.101Z,14.08
2018-09-25T05:35:44.357Z,15.02
2018-09-25T05:38:20.171Z,15.84
2018-09-25T05:40:55.785Z,16.44
2018-09-25T05:43:31.431Z,17.03
2018-09-25T05:46:06.952Z,17.35
2018-09-25T05:48:42.530Z,17.70
2018-09-25T05:51:17.841Z,18.17
2018-09-25T05:53:53.357Z,18.26
2018-09-25T05:56:29.299Z,18.74
2018-09-25T05:59:04.883Z,18.86
2018-09-25T06:01:40.263Z,19.33
2018-09-25T06:04:16.093Z,19.48
2018-09-25T06:06:51.906Z,19.89
2018-09-25T06:09:27.521Z,20.37
2018-09-25T06:12:02.792Z,20.78
2018-09-25T06:14:38.367Z,21.01
2018-09-25T06:17:14.008Z,21.16
2018-09-25T06:19:49.554Z,21.10
2018-09-25T06:22:25.749Z,21.33
2018-09-25T06:25:01.443Z,21.52
2018-09-25T06:27:37.476Z,21.94
2018-09-25T06:30:13.407Z,22.29
2018-09-25T06:32:49.751Z,22.71
2018-09-25T06:35:26.378Z,23.29
2018-09-25T06:38:02.211Z,23.73
2018-09-25T06:40:38.008Z,23.95
2018-09-25T06:43:13.829Z,23.56
2018-09-25T06:45:49.799Z,23.75
2018-09-25T06:48:25.408Z,23.33
2018-09-25T06:51:00.953Z,23.59
2018-09-25T06:53:36.698Z,23.59
2018-09-25T06:56:12.461Z,24.05
2018-09-25T06:58:47.906Z,24.24
2018-09-25T07:01:23.650Z,24.29
2018-09-25T07:03:59.832Z,24.32
2018-09-25T07:06:35.421Z,24.22
2018-09-25T07:09:13.466Z,24.52
2018-09-25T07:11:49.067Z,25.01
2018-09-25T07:14:24.744Z,25.24
2018-09-25T07:17:00.569Z,25.42
2018-09-25T07:19:36.199Z,25.69
2018-09-25T07:22:11.726Z,24.42
2018-09-25T07:24:47.810Z,24.95
2018-09-25T07:27:23.266Z,24.88
2018-09-25T07:29:58.875Z,24.77
2018-09-25T07:32:34.642Z,24.45
2018-09-25T07:35:10.255Z,23.90
2018-09-25T07:37:45.900Z,24.54
2018-09-25T07:40:21.450Z,24.89
2018-09-25T07:42:57.082Z,25.00
2018-09-25T07:45:32.684Z,24.61
2018-09-25T07:48:08.493Z,24.87
2018-09-25T07:50:44.342Z,25.84
2018-09-25T07:53:19.909Z,26.26
2018-09-25T07:55:56.353Z,27.21
2018-09-25T07:58:31.930Z,26.56
2018-09-25T08:01:07.448Z,25.06
2018-09-25T08:03:43.030Z,24.49
2018-09-25T08:06:18.482Z,25.29
2018-09-25T08:08:53.938Z,24.90
2018-09-25T08:11:29.724Z,24.36
2018-09-25T08:14:05.562Z,25.68
2018-09-25T08:16:41.371Z,25.55
2018-09-25T08:19:16.820Z,25.98
2018-09-25T08:21:52.689Z,25.92
2018-09-25T08:24:27.994Z,25.65
2018-09-25T08:27:03.643Z,25.27
2018-09-25T08:29:39.193Z,26.17
2018-09-25T08:32:14.905Z,26.09
2018-09-25T08:34:50.455Z,27.11
2018-09-25T08:37:26.196Z,27.56
2018-09-25T08:40:01.839Z,26.98
2018-09-25T08:42:37.513Z,26.87
2018-09-25T08:45:13.053Z,27.46
2018-09-25T08:47:48.583Z,27.95
2018-09-25T08:50:23.939Z,28.71
2018-09-25T08:52:59.703Z,28.32
2018-09-25T08:55:35.324Z,27.16
2018-09-25T08:58:11.213Z,27.31
2018-09-25T09:00:46.820Z,27.69
2018-09-25T09:03:22.710Z,27.63
2018-09-25T09:05:58.402Z,27.32
2018-09-25T09:08:34.082Z,27.62
2018-09-25T09:11:09.735Z,27.57
2018-09-25T09:13:45.453Z,28.17
2018-09-25T09:16:21.967Z,27.76
2018-09-25T09:18:57.397Z,28.29
2018-09-25T09:21:34.060Z,28.37
2018-09-25T09:24:09.768Z,28.26
2018-09-25T09:26:45.269Z,28.17
2018-09-25T09:29:20.811Z,28.38
2018-09-25T09:31:56.302Z,29.25
2018-09-25T09:34:31.640Z,28.05
2018-09-25T09:37:06.960Z,28.19
2018-09-25T09:39:42.517Z,28.03
2018-09-25T09:42:17.854Z,27.41
2018-09-25T09:44:53.370Z,27.99
2018-09-25T09:47:29.518Z,28.56
2018-09-25T09:50:05.091Z,28.25
2018-09-25T09:52:40.564Z,28.31
2018-09-25T09:55:15.969Z,27.81
2018-09-25T09:57:51.360Z,28.30
2018-09-25T10:00:26.932Z,28.92
2018-09-25T10:03:02.498Z,28.76
2018-09-25T10:05:38.003Z,28.59
2018-09-25T10:08:13.629Z,28.10
2018-09-25T10:10:49.066Z,28.83
2018-09-25T10:13:25.176Z,28.48
2018-09-25T10:16:01.065Z,28.73
2018-09-25T10:18:36.588Z,28.69
2018-09-25T10:21:12.297Z,28.31
2018-09-25T10:23:47.687Z,28.88
2018-09-25T10:26:23.425Z,29.77
2018-09-25T10:28:58.840Z,28.54
2018-09-25T10:31:34.882Z,28.88
2018-09-25T10:34:10.880Z,28.61
2018-09-25T10:36:46.597Z,27.81
2018-09-25T10:39:22.317Z,27.31
2018-09-25T10:41:58.096Z,27.58
2018-09-25T10:44:33.847Z,27.52
2018-09-25T10:47:09.810Z,28.98
2018-09-25T10:49:45.492Z,27.32
2018-09-25T10:52:21.207Z,27.68
2018-09-25T10:54:57.472Z,27.52
2018-09-25T10:57:33.257Z,28.31
2018-09-25T11:00:09.342Z,28.11
2018-09-25T11:02:45.280Z,28.08
2018-09-25T11:05:21.020Z,27.40
2018-09-25T11:07:56.909Z,27.73
2018-09-25T11:10:32.613Z,26.48
2018-09-25T11:13:08.567Z,27.12
2018-09-25T11:15:44.800Z,26.99
2018-09-25T11:18:20.682Z,26.66
2018-09-25T11:20:56.374Z,27.45
2018-09-25T11:23:32.046Z,26.76
2018-09-25T11:26:07.693Z,27.30
2018-09-25T11:28:43.240Z,27.29
2018-09-25T11:31:19.075Z,27.81
2018-09-25T11:33:55.035Z,28.94
2018-09-25T11:36:31.829Z,28.49
2018-09-25T11:39:07.373Z,27.83
2018-09-25T11:41:42.972Z,27.37
2018-09-25T11:44:18.544Z,27.59
2018-09-25T11:46:54.262Z,27.69
2018-09-25T11:49:29.668Z,27.62
2018-09-25T11:52:05.547Z,28.09
2018-09-25T11:54:41.204Z,28.52
2018-09-25T11:57:16.845Z,29.23
2018-09-25T11:59:52.832Z,28.85
2018-09-25T12:02:28.561Z,28.92
2018-09-25T12:05:04.565Z,29.29
2018-09-25T12:07:40.180Z,28.99
2018-09-25T12:10:17.131Z,29.14
2018-09-25T12:12:52.813Z,27.72
2018-09-25T12:15:28.771Z,27.96
2018-09-25T12:18:04.578Z,26.91
2018-09-25T12:20:40.178Z,26.55
2018-09-25T12:23:16.176Z,26.88
2018-09-25T12:25:51.963Z,27.23
2018-09-25T12:28:27.473Z,27.07
2018-09-25T12:31:03.132Z,27.24
2018-09-25T12:33:39.134Z,27.33
2018-09-25T12:36:14.988Z,27.77
2018-09-25T12:38:51.245Z,28.14
2018-09-25T12:41:27.411Z,28.03
2018-09-25T12:44:05.245Z,27.15
2018-09-25T12:46:40.998Z,26.98
2018-09-25T12:49:16.911Z,27.02
2018-09-25T12:51:52.436Z,27.18
2018-09-25T12:54:28.170Z,27.51
2018-09-25T12:57:04.842Z,28.10
2018-09-25T12:59:40.455Z,28.17
2018-09-25T13:02:16.314Z,27.29
2018-09-25T13:04:51.739Z,26.60
2018-09-25T13:07:28.535Z,26.08
2018-09-25T13:10:04.462Z,25.61
2018-09-25T13:12:40.099Z,25.74
2018-09-25T13:15:15.867Z,25.96
2018-09-25T13:17:51.551Z,26.35
2018-09-25T13:20:27.274Z,25.93
2018-09-25T13:23:02.798Z,26.18
2018-09-25T13:25:38.401Z,25.22
2018-09-25T13:28:14.132Z,25.29
2018-09-25T13:30:49.850Z,25.67
2018-09-25T13:33:25.784Z,25.95
2018-09-25T13:36:01.903Z,26.95
2018-09-25T13:38:37.739Z,26.73
2018-09-25T13:41:13.524Z,26.16
2018-09-25T13:43:49.068Z,26.46
2018-09-25T13:46:24.919Z,26.96
2018-09-25T13:49:00.399Z,26.61
2018-09-25T13:51:36.004Z,25.33
2018-09-25T13:54:11.713Z,25.74
2018-09-25T13:56:47.502Z,25.97
2018-09-25T13:59:22.890Z,26.04
2018-09-25T14:01:58.691Z,25.40
2018-09-25T14:04:34.857Z,25.51
2018-09-25T14:07:11.049Z,25.98
2018-09-25T14:09:47.826Z,25.70
2018-09-25T14:12:23.770Z,25.45
2018-09-25T14:15:00.287Z,25.70
2018-09-25T14:17:35.944Z,25.92
2018-09-25T14:20:11.576Z,24.90
2018-09-25T14:22:47.448Z,25.08
2018-09-25T14:25:23.411Z,25.43
2018-09-25T14:27:59.972Z,25.72
2018-09-25T14:30:36.229Z,25.28
2018-09-25T14:33:11.965Z,25.23
2018-09-25T14:35:47.864Z,25.09
2018-09-25T14:38:25.010Z,25.38
2018-09-25T14:41:01.803Z,25.25
2018-09-25T14:43:37.901Z,24.62
2018-09-25T14:46:14.374Z,24.32
2018-09-25T14:48:50.311Z,24.18
2018-09-25T14:51:25.989Z,23.79
2018-09-25T14:54:02.588Z,23.83
2018-09-25T14:56:38.255Z,23.72
2018-09-25T14:59:14.137Z,23.91
2018-09-25T15:01:49.795Z,23.94
2018-09-25T15:04:25.352Z,23.68
2018-09-25T15:07:01.145Z,23.53
2018-09-25T15:09:36.874Z,23.71
2018-09-25T15:12:12.592Z,23.65
2018-09-25T15:14:48.060Z,23.80
2018-09-25T15:17:23.593Z,23.72
2018-09-25T15:19:59.862Z,23.70
2018-09-25T15:22:35.453Z,23.50
2018-09-25T15:25:12.136Z,23.59
2018-09-25T15:27:47.855Z,23.09
2018-09-25T15:30:23.461Z,22.87
2018-09-25T15:32:59.492Z,22.47
2018-09-25T15:35:35.078Z,22.18
2018-09-25T15:38:10.633Z,22.10
2018-09-25T15:40:46.385Z,21.72
2018-09-25T15:43:22.006Z,21.95
2018-09-25T15:45:58.644Z,21.92
2018-09-25T15:48:34.702Z,21.50
2018-09-25T15:51:10.440Z,21.74
2018-09-25T15:53:45.962Z,21.63
2018-09-25T15:56:21.563Z,21.57
2018-09-25T15:58:57.188Z,21.13
2018-09-25T16:01:32.669Z,20.67
2018-09-25T16:04:08.418Z,20.78
2018-09-25T16:06:44.386Z,20.56
2018-09-25T16:09:20.543Z,20.51
2018-09-25T16:11:56.370Z,20.38
2018-09-25T16:14:32.374Z,20.33
2018-09-25T16:17:09.336Z,20.36
2018-09-25T16:19:45.337Z,19.89
2018-09-25T16:22:21.039Z,19.77
2018-09-25T16:24:56.983Z,19.62
2018-09-25T16:27:33.295Z,19.65
2018-09-25T16:30:09.217Z,19.51
2018-09-25T16:32:45.713Z,19.36
2018-09-25T16:35:22.738Z,19.28
2018-09-25T16:37:58.461Z,19.08
2018-09-25T16:40:33.928Z,18.87
2018-09-25T16:43:09.663Z,18.76
2018-09-25T16:45:45.398Z,18.61
2018-09-25T16:48:21.091Z,18.32
2018-09-25T16:50:56.763Z,18.05
2018-09-25T16:53:32.640Z,17.95
2018-09-25T16:56:08.447Z,17.78
2018-09-25T16:58:44.468Z,17.65
2018-09-25T17:01:20.268Z,17.48
2018-09-25T17:03:55.864Z,17.36
2018-09-25T17:06:31.722Z,17.29
2018-09-25T17:09:07.344Z,17.16
2018-09-25T17:11:43.756Z,17.09
2018-09-25T17:14:20.063Z,17.00
2018-09-25T17:16:56.275Z,16.99
2018-09-25T17:19:32.570Z,16.91
2018-09-25T17:22:08.547Z,16.81
2018-09-25T17:24:44.468Z,16.79
2018-09-25T17:27:20.691Z,16.65
2018-09-25T17:29:56.601Z,16.60
2018-09-25T17:32:32.329Z,16.54
2018-09-25T17:35:08.409Z,16.48
2018-09-25T17:37:44.807Z,16.39
2018-09-25T17:40:20.994Z,16.49
2018-09-25T17:42:57.243Z,16.38
2018-09-25T17:45:40.104Z,16.29
2018-09-25T17:48:15.751Z,16.23
2018-09-25T17:50:51.792Z,16.12
2018-09-25T17:53:27.548Z,16.00
2018-09-25T17:56:03.895Z,16.10
2018-09-25T17:58:39.600Z,16.13
2018-09-25T18:01:15.847Z,16.00
2018-09-25T18:03:51.748Z,15.97
2018-09-25T18:06:27.678Z,15.96
2018-09-25T18:09:03.488Z,15.84
2018-09-25T18:11:39.709Z,15.68
2018-09-25T18:14:16.896Z,15.70
2018-09-25T18:16:52.749Z,15.68
2018-09-25T18:19:28.864Z,15.56
2018-09-25T18:22:04.740Z,15.56
2018-09-25T18:24:40.609Z,15.56
2018-09-25T18:27:16.860Z,15.56
2018-09-25T18:29:52.561Z,15.47
2018-09-25T18:32:28.499Z,15.39
2018-09-25T18:35:06.293Z,15.28
2018-09-25T18:37:42.650Z,15.17
2018-09-25T18:40:18.267Z,15.10
2018-09-25T18:42:54.672Z,15.28
2018-09-25T18:45:30.737Z,15.20
2018-09-25T18:48:06.327Z,15.18
2018-09-25T18:50:42.010Z,15.11
2018-09-25T18:53:18.499Z,15.05
2018-09-25T18:55:54.149Z,15.00
2018-09-25T18:58:29.835Z,14.99
2018-09-25T19:01:05.946Z,15.06
2018-09-25T19:03:41.993Z,14.96
2018-09-25T19:06:17.932Z,14.95
2018-09-25T19:08:53.784Z,15.03
2018-09-25T19:11:29.558Z,15.08
2018-09-25T19:14:05.425Z,14.94
2018-09-25T19:16:41.212Z,14.85
2018-09-25T19:19:17.140Z,14.89
2018-09-25T19:21:53.557Z,14.77
2018-09-25T19:24:29.606Z,14.66
2018-09-25T19:27:05.979Z,14.58
2018-09-25T19:29:42.122Z,14.55
2018-09-25T19:32:18.580Z,14.41
2018-09-25T19:34:54.404Z,14.59
2018-09-25T19:37:30.417Z,14.63
2018-09-25T19:40:06.208Z,14.66
2018-09-25T19:42:42.108Z,14.59
2018-09-25T19:45:18.498Z,14.68
2018-09-25T19:47:54.306Z,14.62
2018-09-25T19:50:30.187Z,14.52
2018-09-25T19:53:06.038Z,14.39
2018-09-25T19:55:44.064Z,14.38
2018-09-25T19:58:20.106Z,14.42
2018-09-25T20:00:55.923Z,14.55
2018-09-25T20:03:32.119Z,14.50
2018-09-25T20:06:07.822Z,14.49
2018-09-25T20:08:43.728Z,14.60
2018-09-25T20:11:20.714Z,14.49
2018-09-25T20:13:57.850Z,14.32
2018-09-25T20:16:34.202Z,14.19
2018-09-25T20:19:10.139Z,14.14
2018-09-25T20:21:45.876Z,14.07
2018-09-25T20:24:21.670Z,14.06
2018-09-25T20:26:57.545Z,14.10
2018-09-25T20:29:33.977Z,14.08
2018-09-25T20:32:10.323Z,14.02
2018-09-25T20:34:46.544Z,13.99
2018-09-25T20:37:24.131Z,13.90
2018-09-25T20:40:00.360Z,13.76
2018-09-25T20:42:36.842Z,13.73
2018-09-25T20:45:13.106Z,13.67
2018-09-25T20:47:50.536Z,13.73
2018-09-25T20:50:29.407Z,13.73
2018-09-25T20:53:07.282Z,13.83
2018-09-25T20:55:43.151Z,13.99
2018-09-25T20:58:19.047Z,13.92
2018-09-25T21:00:54.594Z,13.88
2018-09-25T21:03:30.942Z,13.90
2018-09-25T21:06:07.543Z,13.83
2018-09-25T21:08:43.617Z,13.95
2018-09-25T21:11:19.623Z,14.02
2018-09-25T21:13:55.979Z,14.00
2018-09-25T21:16:31.726Z,14.08
2018-09-25T21:19:07.318Z,14.21
2018-09-25T21:21:42.895Z,14.27
2018-09-25T21:24:19.055Z,14.34
2018-09-25T21:26:55.527Z,14.34
2018-09-25T21:29:31.050Z,14.40
2018-09-25T21:32:06.716Z,14.35
2018-09-25T21:34:42.273Z,14.42
2018-09-25T21:37:18.054Z,14.22
2018-09-25T21:39:54.098Z,14.13
2018-09-25T21:42:29.671Z,14.16
2018-09-25T21:45:05.509Z,14.09
2018-09-25T21:47:40.979Z,14.00
2018-09-25T21:50:16.648Z,13.97
2018-09-25T21:52:52.083Z,13.90
2018-09-25T21:55:27.739Z,13.81
2018-09-25T21:58:03.489Z,13.73
2018-09-25T22:00:39.329Z,13.61
2018-09-25T22:03:14.957Z,13.63
2018-09-25T22:05:50.527Z,13.67
2018-09-25T22:08:26.283Z,13.62
2018-09-25T22:11:01.784Z,13.54
2018-09-25T22:13:37.274Z,13.60
2018-09-25T22:16:12.879Z,13.65
2018-09-25T22:18:48.368Z,13.69
2018-09-25T22:21:24.174Z,13.78
2018-09-25T22:24:00.364Z,13.70
2018-09-25T22:26:35.903Z,13.65
2018-09-25T22:29:11.336Z,13.58
2018-09-25T22:31:46.758Z,13.57
2018-09-25T22:34:22.410Z,13.48
2018-09-25T22:36:58.582Z,13.38
2018-09-25T22:39:34.217Z,13.39
2018-09-25T22:42:09.907Z,13.37
2018-09-25T22:44:45.460Z,13.34
2018-09-25T22:47:21.437Z,13.23
2018-09-25T22:49:57.231Z,13.18
2018-09-25T22:52:32.637Z,13.23
2018-09-25T22:55:08.070Z,13.11
2018-09-25T22:57:43.772Z,13.12
2018-09-25T23:00:20.179Z,13.18
2018-09-25T23:02:55.744Z,13.09
2018-09-25T23:05:31.317Z,13.07
2018-09-25T23:08:07.000Z,13.17
2018-09-25T23:10:42.684Z,13.19
2018-09-25T23:13:18.203Z,13.12
2018-09-25T23:15:53.656Z,13.11
2018-09-25T23:18:29.171Z,13.14
2018-09-25T23:21:04.808Z,13.09
2018-09-25T23:23:40.304Z,13.02
2018-09-25T23:26:15.900Z,12.97
2018-09-25T23:28:51.650Z,12.91
2018-09-25T23:31:27.009Z,12.89
2018-09-25T23:34:02.677Z,12.96
2018-09-25T23:36:38.307Z,12.97
2018-09-25T23:39:15.440Z,12.91
2018-09-25T23:42:21.070Z,12.91
2018-09-25T23:45:08.568Z,12.98
2018-09-25T23:47:46.493Z,13.15
2018-09-25T23:50:21.947Z,13.13
2018-09-25T23:53:05.462Z,13.06
2018-09-25T23:55:39.927Z,13.19
2018-09-25T23:58:21.368Z,13.32
